createdAt,value
2019-04-04T00:01:54.702Z,19.65
2019-04-04T00:04:25.373Z,18.02
2019-04-04T00:06:58.092Z,19.35
2019-04-04T00:09:29.183Z,20.10
2019-04-04T00:12:00.717Z,19.17
2019-04-04T00:14:33.006Z,20.68
2019-04-04T00:17:04.069Z,21.65
2019-04-04T00:19:35.348Z,21.05
2019-04-04T00:22:06.967Z,21.27
2019-04-04T00:24:39.364Z,19.62
2019-04-04T00:27:11.219Z,18.07
2019-04-04T00:29:42.985Z,19.15
2019-04-04T00:32:14.046Z,17.77
2019-04-04T00:34:45.228Z,18.07
2019-04-04T00:37:16.563Z,18.57
2019-04-04T00:39:47.850Z,18.62
2019-04-04T00:42:18.840Z,19.05
2019-04-04T00:44:49.748Z,18.67
2019-04-04T00:47:20.998Z,18.73
2019-04-04T00:49:52.114Z,18.02
2019-04-04T00:52:23.404Z,19.52
2019-04-04T00:54:54.359Z,18.10
2019-04-04T00:57:25.737Z,18.15
2019-04-04T00:59:56.677Z,17.87
2019-04-04T01:02:27.975Z,19.50
2019-04-04T01:05:01.260Z,18.48
2019-04-04T01:07:33.908Z,18.67
2019-04-04T01:10:08.385Z,18.70
2019-04-04T01:12:39.376Z,17.25
2019-04-04T01:15:12.392Z,17.45
2019-04-04T01:17:44.550Z,17.35
2019-04-04T01:20:15.472Z,18.02
2019-04-04T01:22:47.765Z,17.98
2019-04-04T01:25:19.417Z,18.20
2019-04-04T01:27:50.460Z,18.75
2019-04-04T01:30:22.581Z,18.62
2019-04-04T01:32:53.888Z,17.55
2019-04-04T01:35:24.512Z,19.02
2019-04-04T01:37:56.075Z,17.37
2019-04-04T01:40:27.985Z,17.75
2019-04-04T01:42:59.041Z,18.62
2019-04-04T01:45:29.814Z,18.07
2019-04-04T01:48:01.056Z,18.20
2019-04-04T01:50:32.031Z,18.52
2019-04-04T01:53:03.362Z,18.32
2019-04-04T01:55:35.134Z,18.02
2019-04-04T01:58:08.024Z,18.42
2019-04-04T02:00:39.106Z,17.42
2019-04-04T02:03:09.932Z,18.32
2019-04-04T02:05:41.059Z,18.82
2019-04-04T02:08:11.604Z,19.55
2019-04-04T02:10:42.228Z,17.35
2019-04-04T02:13:13.182Z,17.62
2019-04-04T02:15:44.746Z,18.98
2019-04-04T02:18:16.410Z,18.45
2019-04-04T02:20:47.383Z,18.67
2019-04-04T02:23:18.723Z,18.70
2019-04-04T02:25:50.423Z,19.55
2019-04-04T02:28:21.708Z,19.37
2019-04-04T02:30:53.499Z,19.73
2019-04-04T02:33:24.437Z,20.50
2019-04-04T02:35:55.402Z,20.27
2019-04-04T02:38:28.022Z,20.68
2019-04-04T02:40:58.614Z,21.15
2019-04-04T02:43:29.820Z,22.42
2019-04-04T02:46:00.749Z,24.37
2019-04-04T02:48:32.022Z,23.42
2019-04-04T02:51:07.062Z,23.00
2019-04-04T02:53:35.834Z,23.15
2019-04-04T02:56:06.766Z,20.50
2019-04-04T02:58:37.690Z,21.27
2019-04-04T03:01:08.432Z,21.62
2019-04-04T03:03:42.127Z,21.05
2019-04-04T03:06:12.155Z,21.27
2019-04-04T03:08:43.073Z,20.03
2019-04-04T03:11:14.079Z,19.97
2019-04-04T03:13:45.294Z,20.82
2019-04-04T03:16:21.136Z,20.43
2019-04-04T03:18:48.930Z,20.70
2019-04-04T03:21:23.373Z,21.70
2019-04-04T03:23:52.526Z,21.62
2019-04-04T03:26:23.354Z,20.02
2019-04-04T03:28:54.169Z,22.32
2019-04-04T03:31:25.196Z,22.43
2019-04-04T03:33:56.268Z,21.30
2019-04-04T03:36:27.023Z,20.70
2019-04-04T03:38:58.321Z,21.93
2019-04-04T03:41:30.654Z,21.33
2019-04-04T03:44:02.216Z,22.50
2019-04-04T03:46:38.402Z,21.05
2019-04-04T03:49:06.045Z,21.37
2019-04-04T03:51:37.967Z,22.58
2019-04-04T03:54:11.249Z,22.82
2019-04-04T03:56:42.229Z,22.07
2019-04-04T03:59:14.350Z,26.00
2019-04-04T04:01:46.868Z,25.00
2019-04-04T04:04:18.437Z,24.13
2019-04-04T04:06:50.113Z,22.20
2019-04-04T04:09:23.443Z,21.68
2019-04-04T04:11:54.223Z,23.50
2019-04-04T04:14:25.277Z,24.00
2019-04-04T04:16:56.930Z,23.57
2019-04-04T04:19:30.955Z,23.83
2019-04-04T04:22:00.267Z,21.60
2019-04-04T04:24:31.424Z,23.07
2019-04-04T04:27:02.123Z,22.47
2019-04-04T04:29:33.338Z,23.10
2019-04-04T04:32:04.273Z,23.03
2019-04-04T04:34:35.364Z,21.90
2019-04-04T04:37:06.354Z,23.40
2019-04-04T04:39:41.191Z,22.30
2019-04-04T04:42:09.744Z,22.90
2019-04-04T04:44:40.401Z,22.90
2019-04-04T04:47:11.491Z,23.07
2019-04-04T04:49:43.477Z,24.43
2019-04-04T04:52:15.355Z,25.03
2019-04-04T04:54:48.100Z,25.47
2019-04-04T04:57:29.425Z,25.97
2019-04-04T04:59:51.570Z,24.43
2019-04-04T05:02:23.238Z,23.77
2019-04-04T05:04:54.656Z,23.80
2019-04-04T05:07:26.109Z,22.73
2019-04-04T05:09:57.290Z,22.58
2019-04-04T05:12:28.359Z,21.33
2019-04-04T05:15:01.425Z,23.80
2019-04-04T05:17:32.078Z,22.63
2019-04-04T05:20:03.596Z,22.00
2019-04-04T05:22:35.095Z,23.10
2019-04-04T05:25:08.675Z,22.90
2019-04-04T05:27:39.575Z,22.45
2019-04-04T05:30:10.747Z,21.77
2019-04-04T05:32:41.906Z,21.55
2019-04-04T05:35:15.245Z,21.97
2019-04-04T05:37:47.472Z,20.77
2019-04-04T05:40:18.508Z,20.68
2019-04-04T05:42:49.686Z,22.47
2019-04-04T05:45:20.766Z,21.60
2019-04-04T05:47:55.123Z,22.53
2019-04-04T05:50:25.083Z,21.40
2019-04-04T05:52:56.541Z,21.80
2019-04-04T05:55:27.457Z,21.75
2019-04-04T05:57:59.258Z,20.90
2019-04-04T06:00:30.563Z,21.77
2019-04-04T06:03:01.520Z,20.27
2019-04-04T06:05:32.843Z,22.30
2019-04-04T06:08:07.803Z,20.72
2019-04-04T06:10:38.336Z,21.20
2019-04-04T06:13:10.982Z,21.70
2019-04-04T06:15:42.282Z,21.52
2019-04-04T06:18:13.921Z,20.40
2019-04-04T06:20:48.366Z,20.45
2019-04-04T06:23:21.023Z,21.60
2019-04-04T06:25:51.964Z,20.57
2019-04-04T06:28:23.826Z,22.00
2019-04-04T06:30:54.982Z,21.17
2019-04-04T06:33:25.888Z,22.75
2019-04-04T06:35:57.007Z,21.87
2019-04-04T06:38:28.566Z,23.35
2019-04-04T06:41:00.950Z,22.82
2019-04-04T06:43:32.470Z,24.92
2019-04-04T06:46:03.637Z,22.05
2019-04-04T06:48:34.235Z,21.48
2019-04-04T06:51:05.020Z,20.35
2019-04-04T06:53:36.041Z,20.97
2019-04-04T06:56:07.198Z,20.97
2019-04-04T06:58:40.039Z,20.52
2019-04-04T07:01:11.437Z,22.22
2019-04-04T07:03:42.567Z,20.48
2019-04-04T07:06:13.928Z,20.52
2019-04-04T07:08:46.750Z,20.15
2019-04-04T07:11:21.631Z,19.77
2019-04-04T07:13:51.417Z,19.75
2019-04-04T07:16:22.808Z,18.70
2019-04-04T07:18:54.012Z,20.55
2019-04-04T07:21:25.801Z,19.67
2019-04-04T07:23:59.424Z,19.27
2019-04-04T07:26:29.765Z,17.98
2019-04-04T07:29:01.296Z,19.27
2019-04-04T07:31:34.046Z,18.27
2019-04-04T07:34:06.136Z,18.65
2019-04-04T07:36:37.509Z,18.55
2019-04-04T07:39:08.273Z,18.40
2019-04-04T07:41:40.795Z,17.85
2019-04-04T07:44:12.839Z,19.98
2019-04-04T07:46:45.706Z,18.32
2019-04-04T07:49:17.570Z,17.90
2019-04-04T07:51:48.931Z,17.50
2019-04-04T07:54:19.948Z,19.45
2019-04-04T07:56:52.154Z,17.82
2019-04-04T07:59:23.436Z,18.40
2019-04-04T08:01:54.437Z,17.85
2019-04-04T08:04:25.649Z,17.45
2019-04-04T08:06:56.811Z,18.15
2019-04-04T08:09:28.803Z,16.90
2019-04-04T08:12:00.192Z,17.45
2019-04-04T08:14:31.248Z,15.72
2019-04-04T08:17:02.731Z,17.40
2019-04-04T08:19:33.942Z,16.12
2019-04-04T08:22:05.190Z,17.20
2019-04-04T08:24:36.417Z,15.63
2019-04-04T08:27:08.240Z,15.28
2019-04-04T08:29:40.761Z,15.83
2019-04-04T08:32:15.357Z,16.25
2019-04-04T08:34:46.639Z,15.80
2019-04-04T08:37:17.705Z,15.60
2019-04-04T08:39:49.043Z,15.72
2019-04-04T08:42:20.360Z,13.98
2019-04-04T08:44:51.549Z,15.48
2019-04-04T08:47:23.266Z,15.40
2019-04-04T08:49:54.468Z,14.98
2019-04-04T08:52:25.703Z,14.18
2019-04-04T08:54:57.451Z,14.95
2019-04-04T08:57:28.514Z,13.88
2019-04-04T09:00:00.016Z,13.50
2019-04-04T09:02:31.608Z,14.33
2019-04-04T09:05:11.988Z,14.20
2019-04-04T09:07:36.186Z,14.18
2019-04-04T09:10:07.517Z,14.43
2019-04-04T09:12:39.605Z,13.53
2019-04-04T09:15:11.609Z,14.43
2019-04-04T09:17:43.105Z,13.32
2019-04-04T09:20:13.990Z,15.32
2019-04-04T09:22:45.261Z,14.03
2019-04-04T09:25:16.728Z,15.05
2019-04-04T09:27:48.011Z,14.20
2019-04-04T09:30:19.395Z,12.07
2019-04-04T09:32:50.408Z,12.30
2019-04-04T09:35:21.623Z,12.10
2019-04-04T09:37:52.890Z,12.10
2019-04-04T09:40:23.919Z,11.80
2019-04-04T09:42:54.813Z,13.03
2019-04-04T09:45:26.420Z,11.90
2019-04-04T09:47:58.119Z,11.48
2019-04-04T09:50:28.866Z,11.20
2019-04-04T09:53:01.070Z,10.95
2019-04-04T09:55:33.082Z,11.18
2019-04-04T09:58:04.425Z,12.55
2019-04-04T10:00:35.579Z,13.80
2019-04-04T10:03:06.764Z,11.95
2019-04-04T10:05:38.316Z,11.90
2019-04-04T10:08:09.334Z,10.50
2019-04-04T10:10:40.679Z,10.82
2019-04-04T10:13:11.924Z,10.70
2019-04-04T10:15:44.078Z,11.65
2019-04-04T10:18:15.339Z,10.53
2019-04-04T10:20:46.495Z,11.22
2019-04-04T10:23:17.605Z,9.75
2019-04-04T10:25:48.426Z,13.10
2019-04-04T10:28:19.551Z,9.35
2019-04-04T10:30:51.151Z,10.95
2019-04-04T10:33:23.429Z,10.15
2019-04-04T10:35:55.103Z,10.48
2019-04-04T10:38:26.795Z,10.13
2019-04-04T10:40:58.463Z,10.00
2019-04-04T10:43:29.588Z,9.75
2019-04-04T10:46:00.971Z,9.25
2019-04-04T10:48:32.672Z,9.75
2019-04-04T10:51:05.037Z,10.03
2019-04-04T10:53:45.333Z,10.23
2019-04-04T10:56:16.757Z,9.20
2019-04-04T10:58:47.569Z,9.90
2019-04-04T11:01:19.100Z,9.45
2019-04-04T11:03:51.386Z,11.28
2019-04-04T11:06:23.086Z,9.45
2019-04-04T11:08:55.071Z,8.15
2019-04-04T11:11:26.649Z,8.60
2019-04-04T11:13:59.538Z,8.23
2019-04-04T11:16:34.020Z,8.10
2019-04-04T11:19:04.897Z,8.58
2019-04-04T11:21:35.753Z,7.75
2019-04-04T11:24:08.022Z,8.05
2019-04-04T11:26:49.612Z,7.55
2019-04-04T11:29:41.624Z,7.58
2019-04-04T11:32:17.255Z,7.17
2019-04-04T11:35:01.321Z,8.58
2019-04-04T11:37:42.854Z,9.38
2019-04-04T11:40:14.996Z,8.20
2019-04-04T11:42:46.232Z,9.40
2019-04-04T11:45:17.393Z,7.80
2019-04-04T11:47:49.584Z,8.60
2019-04-04T11:50:20.931Z,8.68
2019-04-04T11:52:51.801Z,8.60
2019-04-04T11:55:23.042Z,8.43
2019-04-04T11:57:54.219Z,8.45
2019-04-04T12:00:27.259Z,8.75
2019-04-04T12:03:02.648Z,8.98
2019-04-04T12:05:35.571Z,8.20
2019-04-04T12:08:17.884Z,8.40
2019-04-04T12:10:50.724Z,8.13
2019-04-04T12:13:35.429Z,8.55
2019-04-04T12:16:07.718Z,9.33
2019-04-04T12:18:41.422Z,8.08
2019-04-04T12:21:14.799Z,7.65
2019-04-04T12:23:51.669Z,8.18
2019-04-04T12:26:23.009Z,8.43
2019-04-04T12:28:54.201Z,9.13
2019-04-04T12:31:25.444Z,8.25
2019-04-04T12:33:58.805Z,8.73
2019-04-04T12:36:30.025Z,8.20
2019-04-04T12:39:02.420Z,12.35
2019-04-04T12:41:34.945Z,9.13
2019-04-04T12:44:07.185Z,8.68
2019-04-04T12:46:42.593Z,9.38
2019-04-04T12:49:15.317Z,8.68
2019-04-04T12:51:46.802Z,8.58
2019-04-04T12:54:18.538Z,8.35
2019-04-04T12:56:50.528Z,8.95
2019-04-04T12:59:37.994Z,8.73
2019-04-04T13:02:09.855Z,9.05
2019-04-04T13:04:41.529Z,8.75
2019-04-04T13:07:12.596Z,8.60
2019-04-04T13:09:45.102Z,8.38
2019-04-04T13:12:19.502Z,8.90
2019-04-04T13:14:51.919Z,8.15
2019-04-04T13:17:24.899Z,8.03
2019-04-04T13:19:56.796Z,8.85
2019-04-04T13:22:27.666Z,8.28
2019-04-04T13:24:58.718Z,8.68
2019-04-04T13:27:30.051Z,8.00
2019-04-04T13:30:02.170Z,8.38
2019-04-04T13:32:34.068Z,7.60
2019-04-04T13:35:06.012Z,8.48
2019-04-04T13:37:37.546Z,8.05
2019-04-04T13:40:09.355Z,7.92
2019-04-04T13:42:40.494Z,8.40
2019-04-04T13:45:12.220Z,8.95
2019-04-04T13:47:44.280Z,8.25
2019-04-04T13:50:19.675Z,9.08
2019-04-04T13:52:48.400Z,8.40
2019-04-04T13:55:32.723Z,9.70
2019-04-04T13:58:05.428Z,8.58
2019-04-04T14:00:37.107Z,8.00
2019-04-04T14:03:08.187Z,8.35
2019-04-04T14:05:39.187Z,9.48
2019-04-04T14:08:10.418Z,7.72
2019-04-04T14:10:41.956Z,8.33
2019-04-04T14:13:14.482Z,7.72
2019-04-04T14:15:47.705Z,8.30
2019-04-04T14:18:20.401Z,8.30
2019-04-04T14:21:02.903Z,7.83
2019-04-04T14:23:26.144Z,7.20
2019-04-04T14:25:59.657Z,7.60
2019-04-04T14:28:30.960Z,9.05
2019-04-04T14:31:03.071Z,7.47
2019-04-04T14:33:34.331Z,7.92
2019-04-04T14:36:04.999Z,7.95
2019-04-04T14:38:35.882Z,8.25
2019-04-04T14:41:11.482Z,7.87
2019-04-04T14:43:39.753Z,7.20
2019-04-04T14:46:10.675Z,7.33
2019-04-04T14:48:43.022Z,7.60
2019-04-04T14:51:13.950Z,7.78
2019-04-04T14:53:45.165Z,7.15
2019-04-04T14:56:16.530Z,7.25
2019-04-04T14:58:47.721Z,7.45
2019-04-04T15:01:18.419Z,7.70
2019-04-04T15:03:49.415Z,7.85
2019-04-04T15:06:20.391Z,7.62
2019-04-04T15:08:51.471Z,7.75
2019-04-04T15:11:24.210Z,7.25
2019-04-04T15:13:55.362Z,7.87
2019-04-04T15:16:26.652Z,7.47
2019-04-04T15:18:57.352Z,7.78
2019-04-04T15:21:28.589Z,12.47
2019-04-04T15:23:59.972Z,8.40
2019-04-04T15:26:30.976Z,9.28
2019-04-04T15:29:02.117Z,10.23
2019-04-04T15:31:33.951Z,7.97
2019-04-04T15:34:05.525Z,9.58
2019-04-04T15:36:36.699Z,12.55
2019-04-04T15:39:08.049Z,12.82
2019-04-04T15:41:39.533Z,11.05
2019-04-04T15:44:10.750Z,11.70
2019-04-04T15:46:41.679Z,11.73
2019-04-04T15:49:13.075Z,12.47
2019-04-04T15:51:44.441Z,8.98
2019-04-04T15:54:15.658Z,10.98
2019-04-04T15:56:46.770Z,24.90
2019-04-04T15:59:17.577Z,22.10
2019-04-04T16:01:49.320Z,13.90
2019-04-04T16:04:20.397Z,9.08
2019-04-04T16:06:51.817Z,8.28
2019-04-04T16:09:23.076Z,11.68
2019-04-04T16:11:53.934Z,9.68
2019-04-04T16:14:25.128Z,11.95
2019-04-04T16:16:56.525Z,9.05
2019-04-04T16:19:28.216Z,8.50
2019-04-04T16:21:59.788Z,9.83
2019-04-04T16:24:30.956Z,8.78
2019-04-04T16:27:03.028Z,8.08
2019-04-04T16:29:35.719Z,8.05
2019-04-04T16:32:07.390Z,7.53
2019-04-04T16:34:39.055Z,8.58
2019-04-04T16:37:09.876Z,9.03
2019-04-04T16:39:40.843Z,9.98
2019-04-04T16:42:11.967Z,7.50
2019-04-04T16:44:43.613Z,9.28
2019-04-04T16:47:14.964Z,8.63
2019-04-04T16:49:46.416Z,9.00
2019-04-04T16:52:17.467Z,8.05
2019-04-04T16:54:48.623Z,7.72
2019-04-04T16:57:19.610Z,6.47
2019-04-04T16:59:51.293Z,9.10
2019-04-04T17:02:23.621Z,7.45
2019-04-04T17:04:54.886Z,7.70
2019-04-04T17:07:29.086Z,10.35
2019-04-04T17:10:00.274Z,8.00
2019-04-04T17:12:31.772Z,7.80
2019-04-04T17:15:03.349Z,7.33
2019-04-04T17:17:34.668Z,7.92
2019-04-04T17:20:07.638Z,8.68
2019-04-04T17:22:39.916Z,8.93
2019-04-04T17:25:11.556Z,8.05
2019-04-04T17:27:42.453Z,8.43
2019-04-04T17:30:13.780Z,7.15
2019-04-04T17:32:47.899Z,8.68
2019-04-04T17:35:18.924Z,7.55
2019-04-04T17:37:50.397Z,9.05
2019-04-04T17:40:21.502Z,9.55
2019-04-04T17:42:52.457Z,11.33
2019-04-04T17:45:23.418Z,10.00
2019-04-04T17:47:54.589Z,9.98
2019-04-04T17:50:25.531Z,11.60
2019-04-04T17:52:56.539Z,12.03
2019-04-04T17:55:27.647Z,9.93
2019-04-04T17:58:00.076Z,12.35
2019-04-04T18:00:31.234Z,11.28
2019-04-04T18:03:02.558Z,12.73
2019-04-04T18:05:34.943Z,12.65
2019-04-04T18:08:05.885Z,14.87
2019-04-04T18:10:37.936Z,18.02
2019-04-04T18:13:08.855Z,19.32
2019-04-04T18:15:39.420Z,19.42
2019-04-04T18:18:09.981Z,20.00
2019-04-04T18:20:40.580Z,19.77
2019-04-04T18:23:11.510Z,22.15
2019-04-04T18:25:42.230Z,19.37
2019-04-04T18:28:12.783Z,22.82
2019-04-04T18:30:44.511Z,23.27
2019-04-04T18:33:15.086Z,25.32
2019-04-04T18:35:45.698Z,30.12
2019-04-04T18:38:16.239Z,28.47
2019-04-04T18:40:47.734Z,28.02
2019-04-04T18:43:18.398Z,29.65
2019-04-04T18:45:50.882Z,31.15
2019-04-04T18:48:21.590Z,28.42
2019-04-04T18:50:52.118Z,27.42
2019-04-04T18:53:22.494Z,26.27
2019-04-04T18:55:53.273Z,24.70
2019-04-04T18:58:23.957Z,25.00
2019-04-04T19:00:54.583Z,33.65
2019-04-04T19:03:25.238Z,38.33
2019-04-04T19:05:55.853Z,34.65
2019-04-04T19:08:26.431Z,32.20
2019-04-04T19:10:57.277Z,34.45
2019-04-04T19:13:38.499Z,30.52
2019-04-04T19:16:03.516Z,29.12
2019-04-04T19:18:35.310Z,25.60
2019-04-04T19:21:06.825Z,24.98
2019-04-04T19:23:48.586Z,27.07
2019-04-04T19:26:10.902Z,25.50
2019-04-04T19:28:41.693Z,25.90
2019-04-04T19:31:13.102Z,25.15
2019-04-04T19:33:43.806Z,28.30
2019-04-04T19:36:14.526Z,34.38
2019-04-04T19:38:45.262Z,36.93
2019-04-04T19:41:15.934Z,37.38
2019-04-04T19:43:46.608Z,33.00
2019-04-04T19:46:18.461Z,40.75
2019-04-04T19:48:49.262Z,35.63
2019-04-04T19:51:19.750Z,33.30
2019-04-04T19:53:50.553Z,39.42
2019-04-04T19:58:53.173Z,37.30
2019-04-04T20:01:25.709Z,32.65
2019-04-04T20:03:56.967Z,42.08
2019-04-04T20:06:27.690Z,44.40
2019-04-04T20:08:58.280Z,40.88
2019-04-04T20:11:28.892Z,43.02
2019-04-04T20:13:59.531Z,31.07
2019-04-04T20:16:30.526Z,31.42
2019-04-04T20:19:01.123Z,35.05
2019-04-04T20:21:31.496Z,38.28
2019-04-04T20:24:02.097Z,32.83
2019-04-04T20:26:32.532Z,36.88
2019-04-04T20:29:03.045Z,35.35
2019-04-04T20:31:33.582Z,36.35
2019-04-04T20:34:05.926Z,34.20
2019-04-04T20:36:36.066Z,33.70
2019-04-04T20:39:07.251Z,36.33
2019-04-04T20:41:37.799Z,41.40
2019-04-04T20:44:08.394Z,42.62
2019-04-04T20:46:39.015Z,41.85
2019-04-04T20:49:09.685Z,42.00
2019-04-04T20:51:40.113Z,33.80
2019-04-04T20:54:10.597Z,33.23
2019-04-04T20:56:40.989Z,37.63
2019-04-04T20:59:11.518Z,32.13
2019-04-04T21:01:42.004Z,28.25
2019-04-04T21:04:12.501Z,28.50
2019-04-04T21:06:44.547Z,29.45
2019-04-04T21:09:16.288Z,29.98
2019-04-04T21:11:47.493Z,29.32
2019-04-04T21:14:18.660Z,32.58
2019-04-04T21:16:49.385Z,25.48
2019-04-04T21:19:20.196Z,24.95
2019-04-04T21:21:52.530Z,26.20
2019-04-04T21:24:23.626Z,22.37
2019-04-04T21:26:54.589Z,23.67
2019-04-04T21:29:25.406Z,26.15
2019-04-04T21:31:59.761Z,27.55
2019-04-04T21:34:30.972Z,23.73
2019-04-04T21:37:02.125Z,23.18
2019-04-04T21:39:33.629Z,22.70
2019-04-04T21:42:05.012Z,22.80
2019-04-04T21:44:36.252Z,23.07
2019-04-04T21:47:07.202Z,23.65
2019-04-04T21:49:38.313Z,22.32
2019-04-04T21:52:09.319Z,25.00
2019-04-04T21:54:43.551Z,26.77
2019-04-04T21:57:14.316Z,28.50
2019-04-04T21:59:45.439Z,28.65
2019-04-04T22:02:16.198Z,26.68
2019-04-04T22:04:47.160Z,26.10
2019-04-04T22:07:18.475Z,24.67
2019-04-04T22:09:50.004Z,23.55
2019-04-04T22:12:21.962Z,25.75
2019-04-04T22:14:53.969Z,24.98
2019-04-04T22:17:25.440Z,25.10
2019-04-04T22:19:56.457Z,26.23
2019-04-04T22:22:28.160Z,25.08
2019-04-04T22:24:59.365Z,26.68
2019-04-04T22:27:31.137Z,27.05
2019-04-04T22:30:02.478Z,26.20
2019-04-04T22:32:37.698Z,26.40
2019-04-04T22:35:08.718Z,27.50
2019-04-04T22:37:39.652Z,24.10
2019-04-04T22:40:10.698Z,26.00
2019-04-04T22:42:41.929Z,23.70
2019-04-04T22:45:12.963Z,24.32
2019-04-04T22:47:44.122Z,25.08
2019-04-04T22:50:15.550Z,24.87
2019-04-04T22:52:46.914Z,24.47
2019-04-04T22:55:18.021Z,24.72
2019-04-04T22:57:48.765Z,24.47
2019-04-04T23:00:19.874Z,24.18
2019-04-04T23:02:51.052Z,24.02
2019-04-04T23:05:21.906Z,25.48
2019-04-04T23:07:52.969Z,24.50
2019-04-04T23:10:24.128Z,25.27
2019-04-04T23:12:55.567Z,23.98
2019-04-04T23:15:26.631Z,24.25
2019-04-04T23:17:57.747Z,24.60
2019-04-04T23:20:28.826Z,24.82
2019-04-04T23:23:01.309Z,25.12
2019-04-04T23:25:32.423Z,25.02
2019-04-04T23:28:03.314Z,24.05
2019-04-04T23:30:34.707Z,25.55
2019-04-04T23:33:06.679Z,25.27
2019-04-04T23:35:37.516Z,25.20
2019-04-04T23:38:08.208Z,24.32
2019-04-04T23:40:39.442Z,24.77
2019-04-04T23:43:10.737Z,24.50
2019-04-04T23:45:41.954Z,24.87
2019-04-04T23:48:13.020Z,24.95
2019-04-04T23:50:44.101Z,25.02
2019-04-04T23:53:15.525Z,24.90
2019-04-04T23:55:46.493Z,24.05
2019-04-04T23:58:17.726Z,24.43
